Terminal Aerodrome Forecast
Issued by NWS

Home | Current Version | Previous Version | Graphics & Text | Print | Product List | Glossary On
Versions: 1 2 3 4 5 6 7 8 9 10 11 12 13 14 15 16 17 18 19 20 21 22 23 24 25 26
000
FTUS43 KBIS 260347 AAA
TAFJMS
TAF AMD
KJMS 260347Z 2604/2624 20007KT P6SM VCSH BKN080
     FM260500 23006KT P6SM VCTS SCT100CB
     FM261000 25005KT P6SM SCT120
     FM261900 06008KT P6SM BKN120=

USA.gov is the U.S. government's official web portal to all federal, state and local government web resources and services.